sensor_id;sensor_type;location;lat;lon;timestamp;pressure;altitude;pressure_sealevel;temperature;humidity
79538;BME280;68989;52.032;5.152;2024-02-16T00:01:16;101055.29;;;16.13;67.63
79538;BME280;68989;52.032;5.152;2024-02-16T00:03:43;101058.35;;;16.12;67.53
79538;BME280;68989;52.032;5.152;2024-02-16T00:06:11;101059.93;;;16.11;67.54
79538;BME280;68989;52.032;5.152;2024-02-16T00:08:38;101052.59;;;16.09;67.22
79538;BME280;68989;52.032;5.152;2024-02-16T00:11:05;101054.06;;;16.06;67.43
79538;BME280;68989;52.032;5.152;2024-02-16T00:13:32;101050.60;;;16.05;67.51
79538;BME280;68989;52.032;5.152;2024-02-16T00:15:59;101048.20;;;16.04;67.61
79538;BME280;68989;52.032;5.152;2024-02-16T00:18:26;101047.81;;;16.02;67.63
79538;BME280;68989;52.032;5.152;2024-02-16T00:20:53;101049.82;;;16.02;67.72
79538;BME280;68989;52.032;5.152;2024-02-16T00:23:19;101048.52;;;16.01;67.72
79538;BME280;68989;52.032;5.152;2024-02-16T00:25:46;101044.63;;;16.00;67.74
79538;BME280;68989;52.032;5.152;2024-02-16T00:28:13;101040.22;;;15.99;67.65
79538;BME280;68989;52.032;5.152;2024-02-16T00:30:40;101045.48;;;15.99;67.71
79538;BME280;68989;52.032;5.152;2024-02-16T00:33:07;101046.20;;;15.98;67.78
79538;BME280;68989;52.032;5.152;2024-02-16T00:35:34;101047.44;;;15.98;67.69
79538;BME280;68989;52.032;5.152;2024-02-16T00:38:00;101045.98;;;15.97;67.69
79538;BME280;68989;52.032;5.152;2024-02-16T00:40:27;101048.60;;;15.96;67.56
79538;BME280;68989;52.032;5.152;2024-02-16T00:42:55;101046.00;;;15.95;67.73
79538;BME280;68989;52.032;5.152;2024-02-16T00:45:21;101043.65;;;15.93;67.65
79538;BME280;68989;52.032;5.152;2024-02-16T00:47:48;101044.71;;;15.91;67.64
79538;BME280;68989;52.032;5.152;2024-02-16T00:50:16;101040.49;;;15.90;67.58
79538;BME280;68989;52.032;5.152;2024-02-16T00:52:42;101041.25;;;15.89;67.58
79538;BME280;68989;52.032;5.152;2024-02-16T00:55:09;101040.63;;;15.87;67.52
79538;BME280;68989;52.032;5.152;2024-02-16T00:57:36;101036.69;;;15.85;67.59
79538;BME280;68989;52.032;5.152;2024-02-16T01:00:04;101031.47;;;15.83;67.59
79538;BME280;68989;52.032;5.152;2024-02-16T01:02:31;101026.71;;;15.81;67.56
79538;BME280;68989;52.032;5.152;2024-02-16T01:04:59;101029.19;;;15.80;67.59
79538;BME280;68989;52.032;5.152;2024-02-16T01:07:26;101027.00;;;15.78;67.54
79538;BME280;68989;52.032;5.152;2024-02-16T01:09:53;101024.40;;;15.77;67.62
79538;BME280;68989;52.032;5.152;2024-02-16T01:12:19;101026.06;;;15.76;67.54
79538;BME280;68989;52.032;5.152;2024-02-16T01:14:46;101026.39;;;15.75;67.62
79538;BME280;68989;52.032;5.152;2024-02-16T01:17:13;101026.22;;;15.74;67.55
79538;BME280;68989;52.032;5.152;2024-02-16T01:19:40;101023.22;;;15.73;67.69
79538;BME280;68989;52.032;5.152;2024-02-16T01:22:07;101016.70;;;15.72;67.46
79538;BME280;68989;52.032;5.152;2024-02-16T01:24:33;101005.56;;;15.70;67.56
79538;BME280;68989;52.032;5.152;2024-02-16T01:27:00;101002.47;;;15.68;67.52
79538;BME280;68989;52.032;5.152;2024-02-16T01:29:27;100994.42;;;15.67;67.66
79538;BME280;68989;52.032;5.152;2024-02-16T01:31:54;101001.60;;;15.66;67.45
79538;BME280;68989;52.032;5.152;2024-02-16T01:34:21;101004.75;;;15.64;67.57
79538;BME280;68989;52.032;5.152;2024-02-16T01:36:48;101003.90;;;15.62;67.44
79538;BME280;68989;52.032;5.152;2024-02-16T01:39:14;101003.62;;;15.60;67.54
79538;BME280;68989;52.032;5.152;2024-02-16T01:41:41;101012.60;;;15.59;67.58
79538;BME280;68989;52.032;5.152;2024-02-16T01:44:08;101015.61;;;15.59;67.64
79538;BME280;68989;52.032;5.152;2024-02-16T01:46:35;101007.52;;;15.58;67.63
79538;BME280;68989;52.032;5.152;2024-02-16T01:49:02;100998.16;;;15.57;67.80
79538;BME280;68989;52.032;5.152;2024-02-16T01:51:30;100998.96;;;15.57;67.75
79538;BME280;68989;52.032;5.152;2024-02-16T01:53:57;100995.35;;;15.55;67.65
79538;BME280;68989;52.032;5.152;2024-02-16T01:56:24;100988.27;;;15.54;67.70
79538;BME280;68989;52.032;5.152;2024-02-16T01:58:52;100983.41;;;15.53;67.72
79538;BME280;68989;52.032;5.152;2024-02-16T02:01:54;100994.37;;;15.53;67.90
79538;BME280;68989;52.032;5.152;2024-02-16T02:04:21;100999.58;;;15.54;67.99
79538;BME280;68989;52.032;5.152;2024-02-16T02:06:48;101006.86;;;15.55;68.08
79538;BME280;68989;52.032;5.152;2024-02-16T02:09:14;101004.14;;;15.57;68.12
79538;BME280;68989;52.032;5.152;2024-02-16T02:11:41;101003.95;;;15.58;68.08
79538;BME280;68989;52.032;5.152;2024-02-16T02:14:08;100998.40;;;15.60;68.31
79538;BME280;68989;52.032;5.152;2024-02-16T02:16:35;101000.29;;;15.61;68.06
79538;BME280;68989;52.032;5.152;2024-02-16T02:19:02;100992.12;;;15.62;68.09
79538;BME280;68989;52.032;5.152;2024-02-16T02:21:29;100996.49;;;15.63;68.05
79538;BME280;68989;52.032;5.152;2024-02-16T02:23:55;100996.03;;;15.65;68.01
79538;BME280;68989;52.032;5.152;2024-02-16T02:26:22;100993.81;;;15.65;67.96
79538;BME280;68989;52.032;5.152;2024-02-16T02:28:49;100984.57;;;15.66;67.80
79538;BME280;68989;52.032;5.152;2024-02-16T02:31:16;100988.13;;;15.65;67.81
79538;BME280;68989;52.032;5.152;2024-02-16T02:33:43;100987.33;;;15.65;67.82
79538;BME280;68989;52.032;5.152;2024-02-16T02:36:10;100983.71;;;15.65;67.78
79538;BME280;68989;52.032;5.152;2024-02-16T02:38:37;100983.21;;;15.65;67.77
79538;BME280;68989;52.032;5.152;2024-02-16T02:41:04;100981.48;;;15.64;67.81
79538;BME280;68989;52.032;5.152;2024-02-16T02:43:32;100979.77;;;15.63;67.74
79538;BME280;68989;52.032;5.152;2024-02-16T02:45:58;100971.79;;;15.63;67.81
79538;BME280;68989;52.032;5.152;2024-02-16T02:48:25;100967.53;;;15.62;67.58
79538;BME280;68989;52.032;5.152;2024-02-16T02:50:52;100960.01;;;15.62;67.72
79538;BME280;68989;52.032;5.152;2024-02-16T02:53:19;100960.78;;;15.62;67.79
79538;BME280;68989;52.032;5.152;2024-02-16T02:55:46;100963.18;;;15.62;67.67
79538;BME280;68989;52.032;5.152;2024-02-16T02:58:13;100961.50;;;15.61;67.70
79538;BME280;68989;52.032;5.152;2024-02-16T03:00:40;100964.12;;;15.61;67.49
79538;BME280;68989;52.032;5.152;2024-02-16T03:03:07;100960.24;;;15.59;67.45
79538;BME280;68989;52.032;5.152;2024-02-16T03:05:34;100956.02;;;15.58;67.40
79538;BME280;68989;52.032;5.152;2024-02-16T03:08:01;100955.84;;;15.56;67.32
79538;BME280;68989;52.032;5.152;2024-02-16T03:10:29;100953.53;;;15.54;67.39
79538;BME280;68989;52.032;5.152;2024-02-16T03:12:56;100949.90;;;15.52;67.35
79538;BME280;68989;52.032;5.152;2024-02-16T03:15:23;100951.38;;;15.50;67.21
79538;BME280;68989;52.032;5.152;2024-02-16T03:17:50;100950.56;;;15.48;67.31
79538;BME280;68989;52.032;5.152;2024-02-16T03:20:17;100946.70;;;15.46;67.31
79538;BME280;68989;52.032;5.152;2024-02-16T03:22:44;100947.86;;;15.43;67.32
79538;BME280;68989;52.032;5.152;2024-02-16T03:25:11;100949.18;;;15.40;67.30
79538;BME280;68989;52.032;5.152;2024-02-16T03:27:38;100947.37;;;15.39;67.30
79538;BME280;68989;52.032;5.152;2024-02-16T03:30:06;100946.63;;;15.37;67.37
79538;BME280;68989;52.032;5.152;2024-02-16T03:32:34;100942.77;;;15.35;67.38
79538;BME280;68989;52.032;5.152;2024-02-16T03:35:00;100943.48;;;15.34;67.48
79538;BME280;68989;52.032;5.152;2024-02-16T03:37:27;100944.89;;;15.32;67.47
79538;BME280;68989;52.032;5.152;2024-02-16T03:39:54;100945.11;;;15.31;67.32
79538;BME280;68989;52.032;5.152;2024-02-16T03:42:21;100941.00;;;15.29;67.31
79538;BME280;68989;52.032;5.152;2024-02-16T03:44:48;100942.67;;;15.27;67.32
79538;BME280;68989;52.032;5.152;2024-02-16T03:47:14;100941.21;;;15.26;67.38
79538;BME280;68989;52.032;5.152;2024-02-16T03:49:42;100944.66;;;15.25;67.29
79538;BME280;68989;52.032;5.152;2024-02-16T03:52:10;100949.02;;;15.24;67.31
79538;BME280;68989;52.032;5.152;2024-02-16T03:54:37;100949.80;;;15.23;67.45
79538;BME280;68989;52.032;5.152;2024-02-16T03:57:04;100953.54;;;15.22;67.38
79538;BME280;68989;52.032;5.152;2024-02-16T03:59:31;100952.17;;;15.21;67.45
79538;BME280;68989;52.032;5.152;2024-02-16T04:01:58;100955.48;;;15.21;67.50
79538;BME280;68989;52.032;5.152;2024-02-16T04:04:25;100958.23;;;15.21;67.41
79538;BME280;68989;52.032;5.152;2024-02-16T04:06:52;100960.98;;;15.21;67.46
79538;BME280;68989;52.032;5.152;2024-02-16T04:09:18;100956.82;;;15.21;67.34
79538;BME280;68989;52.032;5.152;2024-02-16T04:11:46;100953.95;;;15.20;67.30
79538;BME280;68989;52.032;5.152;2024-02-16T04:14:13;100954.67;;;15.19;67.53
79538;BME280;68989;52.032;5.152;2024-02-16T04:16:42;100955.48;;;15.18;67.44
79538;BME280;68989;52.032;5.152;2024-02-16T04:19:09;100957.63;;;15.17;67.47
79538;BME280;68989;52.032;5.152;2024-02-16T04:21:36;100952.76;;;15.17;67.41
79538;BME280;68989;52.032;5.152;2024-02-16T04:24:03;100948.01;;;15.16;67.40
79538;BME280;68989;52.032;5.152;2024-02-16T04:26:31;100946.88;;;15.15;67.31
79538;BME280;68989;52.032;5.152;2024-02-16T04:28:58;100960.53;;;15.13;67.22
79538;BME280;68989;52.032;5.152;2024-02-16T04:31:25;100955.19;;;15.11;67.21
79538;BME280;68989;52.032;5.152;2024-02-16T04:33:51;100962.72;;;15.10;67.16
79538;BME280;68989;52.032;5.152;2024-02-16T04:36:18;100956.51;;;15.08;67.16
79538;BME280;68989;52.032;5.152;2024-02-16T04:38:45;100961.27;;;15.06;67.47
79538;BME280;68989;52.032;5.152;2024-02-16T04:41:12;100959.27;;;15.06;67.47
79538;BME280;68989;52.032;5.152;2024-02-16T04:43:39;100952.47;;;15.06;67.55
79538;BME280;68989;52.032;5.152;2024-02-16T04:46:05;100950.57;;;15.06;67.44
79538;BME280;68989;52.032;5.152;2024-02-16T04:48:32;100959.21;;;15.06;67.46
79538;BME280;68989;52.032;5.152;2024-02-16T04:51:00;100961.22;;;15.06;67.47
79538;BME280;68989;52.032;5.152;2024-02-16T04:53:27;100961.01;;;15.05;67.37
79538;BME280;68989;52.032;5.152;2024-02-16T04:55:53;100962.41;;;15.05;67.51
79538;BME280;68989;52.032;5.152;2024-02-16T04:58:20;100961.13;;;15.04;67.33
79538;BME280;68989;52.032;5.152;2024-02-16T05:00:47;100962.00;;;15.03;67.43
79538;BME280;68989;52.032;5.152;2024-02-16T05:03:14;100962.03;;;15.01;67.20
79538;BME280;68989;52.032;5.152;2024-02-16T05:05:42;100959.97;;;14.99;67.16
79538;BME280;68989;52.032;5.152;2024-02-16T05:08:09;100959.27;;;14.98;67.30
79538;BME280;68989;52.032;5.152;2024-02-16T05:10:36;100958.01;;;14.97;67.35
79538;BME280;68989;52.032;5.152;2024-02-16T05:13:03;100959.51;;;14.96;67.41
79538;BME280;68989;52.032;5.152;2024-02-16T05:15:30;100958.05;;;14.96;67.29
79538;BME280;68989;52.032;5.152;2024-02-16T05:17:57;100953.01;;;14.95;67.40
79538;BME280;68989;52.032;5.152;2024-02-16T05:20:24;100943.02;;;14.95;67.43
79538;BME280;68989;52.032;5.152;2024-02-16T05:22:51;100947.44;;;14.95;67.43
79538;BME280;68989;52.032;5.152;2024-02-16T05:25:18;100947.02;;;14.96;67.41
79538;BME280;68989;52.032;5.152;2024-02-16T05:27:46;100944.85;;;14.95;67.43
79538;BME280;68989;52.032;5.152;2024-02-16T05:30:13;100943.08;;;14.95;67.47
79538;BME280;68989;52.032;5.152;2024-02-16T05:32:40;100947.74;;;14.95;67.41
79538;BME280;68989;52.032;5.152;2024-02-16T05:35:08;100953.56;;;14.95;67.49
79538;BME280;68989;52.032;5.152;2024-02-16T05:37:36;100952.60;;;14.95;67.57
79538;BME280;68989;52.032;5.152;2024-02-16T05:40:03;100950.44;;;14.96;67.64
79538;BME280;68989;52.032;5.152;2024-02-16T05:42:33;100954.54;;;14.97;67.71
79538;BME280;68989;52.032;5.152;2024-02-16T05:45:00;100956.77;;;14.98;67.70
79538;BME280;68989;52.032;5.152;2024-02-16T05:47:28;100960.66;;;14.98;67.58
79538;BME280;68989;52.032;5.152;2024-02-16T05:49:55;100958.42;;;14.98;67.67
79538;BME280;68989;52.032;5.152;2024-02-16T05:52:23;100953.94;;;14.98;67.52
79538;BME280;68989;52.032;5.152;2024-02-16T05:54:50;100953.39;;;14.97;67.55
79538;BME280;68989;52.032;5.152;2024-02-16T05:57:16;100951.60;;;14.95;67.32
79538;BME280;68989;52.032;5.152;2024-02-16T05:59:43;100950.43;;;14.94;67.67
79538;BME280;68989;52.032;5.152;2024-02-16T06:02:10;100953.09;;;14.95;67.73
79538;BME280;68989;52.032;5.152;2024-02-16T06:04:38;100951.69;;;14.96;67.68
79538;BME280;68989;52.032;5.152;2024-02-16T06:07:05;100955.10;;;14.97;67.79
79538;BME280;68989;52.032;5.152;2024-02-16T06:09:33;100958.76;;;14.98;67.76
79538;BME280;68989;52.032;5.152;2024-02-16T06:12:01;100964.57;;;14.99;67.85
79538;BME280;68989;52.032;5.152;2024-02-16T06:14:28;100965.78;;;15.01;67.84
79538;BME280;68989;52.032;5.152;2024-02-16T06:16:56;100975.22;;;15.03;67.92
79538;BME280;68989;52.032;5.152;2024-02-16T06:19:23;100970.61;;;15.05;67.85
79538;BME280;68989;52.032;5.152;2024-02-16T06:21:50;100980.26;;;15.06;67.77
79538;BME280;68989;52.032;5.152;2024-02-16T06:24:17;100987.62;;;15.08;67.78
79538;BME280;68989;52.032;5.152;2024-02-16T06:26:44;100990.56;;;15.09;67.63
79538;BME280;68989;52.032;5.152;2024-02-16T06:29:11;100986.80;;;15.10;67.77
79538;BME280;68989;52.032;5.152;2024-02-16T06:31:38;100984.54;;;15.10;67.73
79538;BME280;68989;52.032;5.152;2024-02-16T06:34:05;100988.44;;;15.11;67.74
79538;BME280;68989;52.032;5.152;2024-02-16T06:36:32;100994.30;;;15.13;67.70
79538;BME280;68989;52.032;5.152;2024-02-16T06:38:59;100996.10;;;15.13;67.72
79538;BME280;68989;52.032;5.152;2024-02-16T06:41:26;101001.73;;;15.15;67.70
79538;BME280;68989;52.032;5.152;2024-02-16T06:43:53;101007.32;;;15.16;67.75
79538;BME280;68989;52.032;5.152;2024-02-16T06:46:20;101004.00;;;15.16;67.57
79538;BME280;68989;52.032;5.152;2024-02-16T06:48:47;101009.33;;;15.17;67.77
79538;BME280;68989;52.032;5.152;2024-02-16T06:51:15;101007.34;;;15.18;67.62
79538;BME280;68989;52.032;5.152;2024-02-16T06:53:41;101003.05;;;15.17;67.69
79538;BME280;68989;52.032;5.152;2024-02-16T06:56:09;101004.19;;;15.17;67.50
79538;BME280;68989;52.032;5.152;2024-02-16T06:58:36;101011.30;;;15.18;67.65
79538;BME280;68989;52.032;5.152;2024-02-16T07:01:04;101019.68;;;15.19;67.56
79538;BME280;68989;52.032;5.152;2024-02-16T07:03:30;101022.61;;;15.19;67.54
79538;BME280;68989;52.032;5.152;2024-02-16T07:05:57;101020.28;;;15.20;67.62
79538;BME280;68989;52.032;5.152;2024-02-16T07:08:25;101027.14;;;15.21;67.70
79538;BME280;68989;52.032;5.152;2024-02-16T07:10:52;101033.02;;;15.23;67.81
79538;BME280;68989;52.032;5.152;2024-02-16T07:13:19;101031.59;;;15.25;67.86
79538;BME280;68989;52.032;5.152;2024-02-16T07:15:46;101033.58;;;15.28;67.83
79538;BME280;68989;52.032;5.152;2024-02-16T07:18:12;101027.24;;;15.31;67.84
79538;BME280;68989;52.032;5.152;2024-02-16T07:20:40;101034.65;;;15.33;67.87
79538;BME280;68989;52.032;5.152;2024-02-16T07:23:07;101035.00;;;15.35;67.93
79538;BME280;68989;52.032;5.152;2024-02-16T07:25:35;101038.96;;;15.37;67.99
79538;BME280;68989;52.032;5.152;2024-02-16T07:28:02;101038.31;;;15.40;68.24
79538;BME280;68989;52.032;5.152;2024-02-16T07:30:29;101045.07;;;15.42;68.31
79538;BME280;68989;52.032;5.152;2024-02-16T07:32:56;101050.83;;;15.45;68.34
79538;BME280;68989;52.032;5.152;2024-02-16T07:35:23;101053.95;;;15.48;68.25
79538;BME280;68989;52.032;5.152;2024-02-16T07:37:50;101058.56;;;15.51;68.27
79538;BME280;68989;52.032;5.152;2024-02-16T07:40:17;101064.13;;;15.53;68.62
79538;BME280;68989;52.032;5.152;2024-02-16T07:42:44;101063.94;;;15.55;68.77
79538;BME280;68989;52.032;5.152;2024-02-16T07:45:11;101067.48;;;15.58;68.69
79538;BME280;68989;52.032;5.152;2024-02-16T07:47:38;101074.21;;;15.61;68.78
79538;BME280;68989;52.032;5.152;2024-02-16T07:50:07;101078.62;;;15.64;68.87
79538;BME280;68989;52.032;5.152;2024-02-16T07:52:34;101084.65;;;15.66;68.62
79538;BME280;68989;52.032;5.152;2024-02-16T07:55:01;101087.53;;;15.69;68.58
79538;BME280;68989;52.032;5.152;2024-02-16T07:57:28;101088.14;;;15.70;68.93
79538;BME280;68989;52.032;5.152;2024-02-16T07:59:55;101096.95;;;15.72;68.77
79538;BME280;68989;52.032;5.152;2024-02-16T08:02:22;101097.16;;;15.75;68.92
79538;BME280;68989;52.032;5.152;2024-02-16T08:04:50;101100.27;;;15.78;68.92
79538;BME280;68989;52.032;5.152;2024-02-16T08:07:17;101099.39;;;15.80;69.01
79538;BME280;68989;52.032;5.152;2024-02-16T08:09:45;101103.28;;;15.83;69.36
79538;BME280;68989;52.032;5.152;2024-02-16T08:12:12;101102.19;;;15.86;69.50
79538;BME280;68989;52.032;5.152;2024-02-16T08:14:38;101106.20;;;15.89;69.42
79538;BME280;68989;52.032;5.152;2024-02-16T08:17:06;101107.63;;;15.92;69.12
79538;BME280;68989;52.032;5.152;2024-02-16T08:19:35;101104.75;;;15.94;69.80
79538;BME280;68989;52.032;5.152;2024-02-16T08:22:03;101109.75;;;15.98;69.74
79538;BME280;68989;52.032;5.152;2024-02-16T08:24:31;101115.09;;;16.02;69.67
79538;BME280;68989;52.032;5.152;2024-02-16T08:26:59;101112.62;;;16.06;69.36
79538;BME280;68989;52.032;5.152;2024-02-16T08:29:26;101111.31;;;16.11;69.76
79538;BME280;68989;52.032;5.152;2024-02-16T08:31:54;101113.36;;;16.13;69.90
79538;BME280;68989;52.032;5.152;2024-02-16T08:34:22;101115.68;;;16.19;70.29
79538;BME280;68989;52.032;5.152;2024-02-16T08:36:49;101116.93;;;16.24;70.41
79538;BME280;68989;52.032;5.152;2024-02-16T08:39:17;101118.42;;;16.29;70.02
79538;BME280;68989;52.032;5.152;2024-02-16T08:41:44;101114.47;;;16.34;70.47
79538;BME280;68989;52.032;5.152;2024-02-16T08:44:11;101116.80;;;16.41;70.38
79538;BME280;68989;52.032;5.152;2024-02-16T08:46:38;101121.45;;;16.47;70.61
79538;BME280;68989;52.032;5.152;2024-02-16T08:49:05;101128.69;;;16.54;70.47
79538;BME280;68989;52.032;5.152;2024-02-16T08:51:33;101131.53;;;16.59;70.28
79538;BME280;68989;52.032;5.152;2024-02-16T08:54:01;101134.97;;;16.64;70.17
79538;BME280;68989;52.032;5.152;2024-02-16T08:56:28;101138.31;;;16.68;69.73
79538;BME280;68989;52.032;5.152;2024-02-16T08:58:55;101132.23;;;16.70;70.16
79538;BME280;68989;52.032;5.152;2024-02-16T09:01:30;101134.39;;;16.72;69.81
79538;BME280;68989;52.032;5.152;2024-02-16T09:03:58;101135.46;;;16.74;69.84
79538;BME280;68989;52.032;5.152;2024-02-16T09:06:25;101144.69;;;16.75;69.62
79538;BME280;68989;52.032;5.152;2024-02-16T09:08:52;101149.48;;;16.77;69.68
79538;BME280;68989;52.032;5.152;2024-02-16T09:11:19;101162.28;;;16.78;69.51
79538;BME280;68989;52.032;5.152;2024-02-16T09:13:47;101170.70;;;16.77;69.41
79538;BME280;68989;52.032;5.152;2024-02-16T09:16:14;101181.74;;;16.75;69.38
79538;BME280;68989;52.032;5.152;2024-02-16T09:18:41;101187.51;;;16.76;69.70
79538;BME280;68989;52.032;5.152;2024-02-16T09:21:09;101198.43;;;16.76;69.78
79538;BME280;68989;52.032;5.152;2024-02-16T09:23:36;101201.27;;;16.77;69.96
79538;BME280;68989;52.032;5.152;2024-02-16T09:26:04;101207.14;;;16.78;70.42
79538;BME280;68989;52.032;5.152;2024-02-16T09:28:31;101210.44;;;16.80;70.61
79538;BME280;68989;52.032;5.152;2024-02-16T09:30:59;101209.88;;;16.83;70.92
79538;BME280;68989;52.032;5.152;2024-02-16T09:33:26;101216.29;;;16.86;71.10
79538;BME280;68989;52.032;5.152;2024-02-16T09:35:53;101215.42;;;16.89;70.81
79538;BME280;68989;52.032;5.152;2024-02-16T09:38:20;101212.96;;;16.92;71.38
79538;BME280;68989;52.032;5.152;2024-02-16T09:40:47;101225.28;;;16.95;71.03
79538;BME280;68989;52.032;5.152;2024-02-16T09:43:24;101227.32;;;16.99;70.21
79538;BME280;68989;52.032;5.152;2024-02-16T09:45:53;101238.02;;;17.02;71.08
79538;BME280;68989;52.032;5.152;2024-02-16T09:48:21;101237.86;;;17.07;71.18
79538;BME280;68989;52.032;5.152;2024-02-16T09:50:48;101255.15;;;17.11;71.36
79538;BME280;68989;52.032;5.152;2024-02-16T09:53:17;101247.36;;;17.15;71.50
79538;BME280;68989;52.032;5.152;2024-02-16T09:55:46;101249.82;;;17.18;71.09
79538;BME280;68989;52.032;5.152;2024-02-16T09:58:13;101257.51;;;17.19;70.83
79538;BME280;68989;52.032;5.152;2024-02-16T10:00:41;101261.03;;;17.21;70.94
79538;BME280;68989;52.032;5.152;2024-02-16T10:03:07;101267.97;;;17.22;70.71
79538;BME280;68989;52.032;5.152;2024-02-16T10:05:35;101273.93;;;17.22;70.14
79538;BME280;68989;52.032;5.152;2024-02-16T10:08:11;101282.38;;;17.22;70.53
79538;BME280;68989;52.032;5.152;2024-02-16T10:10:38;101291.27;;;17.23;70.61
79538;BME280;68989;52.032;5.152;2024-02-16T10:13:06;101293.00;;;17.23;70.23
79538;BME280;68989;52.032;5.152;2024-02-16T10:15:34;101293.18;;;17.21;70.25
79538;BME280;68989;52.032;5.152;2024-02-16T10:18:02;101306.10;;;17.22;70.36
79538;BME280;68989;52.032;5.152;2024-02-16T10:20:31;101308.15;;;17.21;70.19
79538;BME280;68989;52.032;5.152;2024-02-16T10:23:07;101308.88;;;17.20;70.20
79538;BME280;68989;52.032;5.152;2024-02-16T10:25:34;101312.59;;;17.20;70.33
79538;BME280;68989;52.032;5.152;2024-02-16T10:28:04;101320.81;;;17.21;70.38
79538;BME280;68989;52.032;5.152;2024-02-16T10:30:35;101327.55;;;17.20;70.15
79538;BME280;68989;52.032;5.152;2024-02-16T10:33:02;101339.47;;;17.20;70.45
79538;BME280;68989;52.032;5.152;2024-02-16T10:35:30;101353.28;;;17.20;70.33
79538;BME280;68989;52.032;5.152;2024-02-16T10:37:58;101360.89;;;17.19;70.07
79538;BME280;68989;52.032;5.152;2024-02-16T10:40:27;101352.09;;;17.18;69.89
79538;BME280;68989;52.032;5.152;2024-02-16T10:42:55;101355.64;;;17.18;70.14
79538;BME280;68989;52.032;5.152;2024-02-16T10:45:23;101373.48;;;17.17;70.25
79538;BME280;68989;52.032;5.152;2024-02-16T10:47:50;101387.29;;;17.17;70.36
79538;BME280;68989;52.032;5.152;2024-02-16T10:50:18;101389.63;;;17.16;70.21
79538;BME280;68989;52.032;5.152;2024-02-16T10:52:46;101386.82;;;17.15;70.43
79538;BME280;68989;52.032;5.152;2024-02-16T10:55:14;101389.05;;;17.14;70.21
79538;BME280;68989;52.032;5.152;2024-02-16T10:57:42;101383.17;;;17.14;70.30
79538;BME280;68989;52.032;5.152;2024-02-16T11:00:10;101385.15;;;17.14;70.40
79538;BME280;68989;52.032;5.152;2024-02-16T11:02:54;101385.31;;;17.15;70.44
79538;BME280;68989;52.032;5.152;2024-02-16T11:05:32;101387.35;;;17.16;70.44
79538;BME280;68989;52.032;5.152;2024-02-16T11:08:01;101400.58;;;17.17;70.73
79538;BME280;68989;52.032;5.152;2024-02-16T11:10:28;101400.97;;;17.18;70.68
79538;BME280;68989;52.032;5.152;2024-02-16T11:13:01;101402.85;;;17.19;70.85
79538;BME280;68989;52.032;5.152;2024-02-16T11:15:28;101400.80;;;17.19;70.64
79538;BME280;68989;52.032;5.152;2024-02-16T11:17:56;101411.38;;;17.20;70.59
79538;BME280;68989;52.032;5.152;2024-02-16T11:20:24;101418.44;;;17.22;70.70
79538;BME280;68989;52.032;5.152;2024-02-16T11:22:51;101411.40;;;17.22;70.70
79538;BME280;68989;52.032;5.152;2024-02-16T11:25:18;101409.82;;;17.22;70.64
79538;BME280;68989;52.032;5.152;2024-02-16T11:27:46;101408.48;;;17.23;70.75
79538;BME280;68989;52.032;5.152;2024-02-16T11:30:14;101406.10;;;17.24;70.68
79538;BME280;68989;52.032;5.152;2024-02-16T11:32:43;101405.33;;;17.25;70.74
79538;BME280;68989;52.032;5.152;2024-02-16T11:35:10;101416.87;;;17.26;70.55
79538;BME280;68989;52.032;5.152;2024-02-16T11:37:37;101420.55;;;17.27;70.85
79538;BME280;68989;52.032;5.152;2024-02-16T11:40:06;101429.95;;;17.28;70.76
79538;BME280;68989;52.032;5.152;2024-02-16T11:42:33;101442.20;;;17.29;70.75
79538;BME280;68989;52.032;5.152;2024-02-16T11:45:01;101454.83;;;17.30;70.88
79538;BME280;68989;52.032;5.152;2024-02-16T11:47:28;101460.22;;;17.32;70.94
79538;BME280;68989;52.032;5.152;2024-02-16T11:50:05;101461.30;;;17.32;70.75
79538;BME280;68989;52.032;5.152;2024-02-16T11:52:33;101467.87;;;17.31;70.44
79538;BME280;68989;52.032;5.152;2024-02-16T11:55:00;101470.51;;;17.31;70.47
79538;BME280;68989;52.032;5.152;2024-02-16T11:57:27;101479.97;;;17.31;70.48
79538;BME280;68989;52.032;5.152;2024-02-16T11:59:55;101477.22;;;17.32;70.52
79538;BME280;68989;52.032;5.152;2024-02-16T12:02:24;101474.99;;;17.32;70.58
79538;BME280;68989;52.032;5.152;2024-02-16T12:04:58;101483.91;;;17.33;70.56
79538;BME280;68989;52.032;5.152;2024-02-16T12:07:26;101492.07;;;17.33;70.41
79538;BME280;68989;52.032;5.152;2024-02-16T12:09:56;101496.23;;;17.32;70.57
79538;BME280;68989;52.032;5.152;2024-02-16T12:12:26;101499.79;;;17.32;70.82
79538;BME280;68989;52.032;5.152;2024-02-16T12:14:53;101503.12;;;17.33;70.76
79538;BME280;68989;52.032;5.152;2024-02-16T12:17:21;101510.88;;;17.33;70.88
79538;BME280;68989;52.032;5.152;2024-02-16T12:19:51;101515.20;;;17.33;70.89
79538;BME280;68989;52.032;5.152;2024-02-16T12:22:20;101516.98;;;17.34;70.81
79538;BME280;68989;52.032;5.152;2024-02-16T12:24:48;101517.68;;;17.34;70.80
79538;BME280;68989;52.032;5.152;2024-02-16T12:27:16;101520.40;;;17.34;70.82
79538;BME280;68989;52.032;5.152;2024-02-16T12:29:43;101523.25;;;17.33;70.74
79538;BME280;68989;52.032;5.152;2024-02-16T12:32:10;101525.71;;;17.33;70.76
79538;BME280;68989;52.032;5.152;2024-02-16T12:34:37;101530.51;;;17.33;70.75
79538;BME280;68989;52.032;5.152;2024-02-16T12:37:05;101534.65;;;17.34;70.71
79538;BME280;68989;52.032;5.152;2024-02-16T12:39:31;101542.24;;;17.34;70.72
79538;BME280;68989;52.032;5.152;2024-02-16T12:41:59;101547.00;;;17.33;70.67
79538;BME280;68989;52.032;5.152;2024-02-16T12:44:26;101547.58;;;17.35;70.96
79538;BME280;68989;52.032;5.152;2024-02-16T12:46:53;101557.35;;;17.37;70.97
79538;BME280;68989;52.032;5.152;2024-02-16T12:49:21;101560.16;;;17.40;71.31
79538;BME280;68989;52.032;5.152;2024-02-16T12:51:48;101563.43;;;17.43;71.43